createdAt,value
2019-01-29T00:01:45.950Z,46.19
2019-01-29T00:04:38.171Z,46.20
2019-01-29T00:07:31.451Z,46.64
2019-01-29T00:10:22.206Z,47.01
2019-01-29T00:13:12.244Z,47.32
2019-01-29T00:16:02.418Z,47.62
2019-01-29T00:21:37.311Z,47.74
2019-01-29T00:27:12.142Z,47.38
2019-01-29T00:30:01.858Z,47.38
2019-01-29T00:33:18.064Z,47.91
2019-01-29T00:39:36.031Z,48.27
2019-01-29T00:42:18.854Z,48.51
2019-01-29T00:44:58.625Z,47.36
2019-01-29T00:48:08.885Z,47.45
2019-01-29T00:50:58.916Z,47.44
2019-01-29T00:53:29.825Z,47.25
2019-01-29T00:59:24.557Z,47.99
2019-01-29T01:02:15.007Z,48.44
2019-01-29T01:05:05.013Z,48.39
2019-01-29T01:07:54.924Z,48.06
2019-01-29T01:10:27.051Z,48.04
2019-01-29T01:13:17.602Z,48.36
2019-01-29T01:15:51.350Z,48.60
2019-01-29T01:18:22.312Z,49.10
2019-01-29T01:21:31.349Z,50.04
2019-01-29T01:24:21.347Z,50.84
2019-01-29T01:27:11.350Z,50.73
2019-01-29T01:29:42.366Z,49.94
2019-01-29T01:35:15.741Z,48.50
2019-01-29T01:37:46.752Z,48.44
2019-01-29T01:40:37.593Z,49.19
2019-01-29T01:43:09.449Z,49.38
2019-01-29T01:45:59.432Z,49.97
2019-01-29T01:48:42.514Z,50.77
2019-01-29T01:51:04.247Z,50.22
2019-01-29T01:53:36.058Z,50.80
2019-01-29T01:56:25.992Z,50.93
2019-01-29T02:02:00.064Z,50.92
2019-01-29T02:04:50.526Z,50.85
2019-01-29T02:07:22.440Z,51.27
2019-01-29T02:13:20.408Z,51.92
2019-01-29T02:22:28.805Z,52.69
2019-01-29T02:37:06.403Z,54.05
2019-01-29T02:39:59.279Z,54.44
2019-01-29T02:42:54.016Z,54.65
2019-01-29T02:45:25.554Z,54.39
2019-01-29T02:47:56.483Z,53.99
2019-01-29T02:51:07.450Z,54.18
2019-01-29T02:53:38.466Z,54.09
2019-01-29T02:56:14.075Z,54.74
2019-01-29T03:02:39.135Z,54.65
2019-01-29T03:05:10.905Z,54.62
2019-01-29T03:07:41.884Z,53.93
2019-01-29T03:10:14.051Z,52.83
2019-01-29T03:12:45.033Z,51.82
2019-01-29T03:15:22.147Z,51.06
2019-01-29T03:17:53.174Z,51.21
2019-01-29T03:20:24.116Z,51.39
2019-01-29T03:25:44.856Z,52.25
2019-01-29T03:28:15.795Z,52.12
2019-01-29T03:31:38.910Z,52.65
2019-01-29T03:34:18.924Z,53.47
2019-01-29T03:36:49.859Z,53.63
2019-01-29T03:39:42.758Z,53.19
2019-01-29T03:42:13.752Z,53.79
2019-01-29T03:44:44.796Z,54.10
2019-01-29T03:50:25.871Z,53.77
2019-01-29T03:52:56.837Z,53.99
2019-01-29T03:56:06.749Z,53.76
2019-01-29T04:01:39.638Z,53.88
2019-01-29T04:04:15.599Z,54.20
2019-01-29T04:06:47.679Z,53.75
2019-01-29T04:09:22.597Z,53.60
2019-01-29T04:11:53.505Z,53.17
2019-01-29T04:14:43.388Z,53.63
2019-01-29T04:17:14.465Z,53.62
2019-01-29T04:19:45.429Z,53.23
2019-01-29T04:22:36.326Z,53.02
2019-01-29T04:25:07.372Z,53.02
2019-01-29T04:27:38.387Z,53.05
2019-01-29T04:30:31.287Z,53.55
2019-01-29T04:33:02.244Z,53.36
2019-01-29T04:38:42.017Z,53.90
2019-01-29T04:41:32.036Z,53.95
2019-01-29T04:49:55.504Z,54.73
2019-01-29T04:52:26.486Z,53.76
2019-01-29T04:57:58.614Z,53.52
2019-01-29T05:04:17.634Z,53.95
2019-01-29T05:06:49.805Z,54.00
2019-01-29T05:09:41.109Z,53.30
2019-01-29T05:12:13.032Z,53.12
2019-01-29T05:15:03.336Z,52.20
2019-01-29T05:17:34.288Z,52.79
2019-01-29T05:20:05.609Z,53.29
2019-01-29T05:22:55.606Z,53.11
2019-01-29T05:25:26.536Z,53.36
2019-01-29T05:27:57.489Z,53.20
2019-01-29T05:30:47.505Z,52.62
2019-01-29T05:33:19.046Z,51.78
2019-01-29T05:35:50.164Z,51.88
2019-01-29T05:38:40.120Z,51.84
2019-01-29T05:41:11.115Z,51.31
2019-01-29T05:44:03.859Z,52.30
2019-01-29T05:46:54.787Z,52.02
2019-01-29T05:49:26.626Z,52.03
2019-01-29T05:51:57.548Z,52.56
2019-01-29T05:54:47.601Z,52.31
2019-01-29T05:57:18.478Z,52.34
2019-01-29T05:59:49.565Z,52.16
2019-01-29T06:02:39.788Z,52.45
2019-01-29T06:05:17.949Z,51.52
2019-01-29T06:07:48.807Z,51.89
2019-01-29T06:10:39.664Z,51.93
2019-01-29T06:13:12.068Z,51.02
2019-01-29T06:16:04.807Z,51.55
2019-01-29T06:18:36.583Z,51.49
2019-01-29T06:21:26.564Z,51.60
2019-01-29T06:27:22.023Z,51.73
2019-01-29T06:30:33.161Z,51.54
2019-01-29T06:33:23.263Z,51.09
2019-01-29T06:35:54.277Z,51.33
2019-01-29T06:38:28.407Z,51.83
2019-01-29T06:44:59.711Z,51.28
2019-01-29T06:50:24.092Z,50.73
2019-01-29T06:53:08.429Z,51.38
2019-01-29T06:55:29.454Z,51.16
2019-01-29T06:58:20.341Z,50.78
2019-01-29T07:01:29.416Z,51.99
2019-01-29T07:04:00.417Z,52.26
2019-01-29T07:06:31.426Z,50.95
2019-01-29T07:09:03.338Z,50.45
2019-01-29T07:12:14.038Z,51.23
2019-01-29T07:14:48.636Z,51.56
2019-01-29T07:20:15.844Z,53.06
2019-01-29T07:25:51.547Z,52.99
2019-01-29T07:28:22.525Z,52.75
2019-01-29T07:30:53.472Z,52.67
2019-01-29T07:36:48.314Z,53.36
2019-01-29T07:39:22.534Z,52.47
2019-01-29T07:42:26.978Z,52.28
2019-01-29T07:44:47.897Z,52.48
2019-01-29T07:47:17.883Z,53.49
2019-01-29T07:50:03.445Z,53.54
2019-01-29T07:52:23.519Z,53.17
2019-01-29T07:54:54.481Z,53.52
2019-01-29T08:00:36.537Z,53.15
2019-01-29T08:03:08.342Z,52.46
2019-01-29T08:05:40.140Z,52.32
2019-01-29T08:08:44.235Z,52.13
2019-01-29T08:17:22.141Z,50.76
2019-01-29T08:20:12.618Z,50.35
2019-01-29T08:25:25.880Z,51.15
2019-01-29T08:31:00.290Z,51.21
2019-01-29T08:34:21.314Z,51.29
2019-01-29T08:40:02.623Z,51.34
2019-01-29T08:42:54.248Z,51.56
2019-01-29T08:45:43.285Z,51.03
2019-01-29T08:48:32.347Z,49.88
2019-01-29T08:54:14.339Z,50.04
2019-01-29T08:57:03.478Z,48.98
2019-01-29T08:59:53.444Z,49.07
2019-01-29T09:02:25.279Z,49.32
2019-01-29T09:05:15.623Z,49.32
2019-01-29T09:07:46.635Z,49.40
2019-01-29T09:13:52.663Z,49.26
2019-01-29T09:16:41.900Z,49.14
2019-01-29T09:19:33.278Z,49.24
2019-01-29T09:22:23.290Z,48.92
2019-01-29T09:27:56.098Z,48.03
2019-01-29T09:30:26.202Z,46.91
2019-01-29T09:33:19.166Z,46.64
2019-01-29T09:36:08.901Z,46.40
2019-01-29T09:38:58.920Z,46.00
2019-01-29T09:41:44.781Z,45.69
2019-01-29T09:44:38.166Z,45.69
2019-01-29T09:47:21.198Z,46.94
2019-01-29T09:49:52.457Z,46.94
2019-01-29T09:52:23.372Z,47.39
2019-01-29T09:55:07.055Z,47.70
2019-01-29T09:57:49.953Z,47.57
2019-01-29T10:00:55.441Z,47.36
2019-01-29T10:03:55.282Z,47.86
2019-01-29T10:06:26.219Z,47.91
2019-01-29T10:08:58.002Z,48.18
2019-01-29T10:11:48.208Z,48.42
2019-01-29T10:14:19.317Z,47.90
2019-01-29T10:19:50.467Z,48.38
2019-01-29T10:22:59.993Z,48.63
2019-01-29T10:38:04.203Z,48.34
2019-01-29T10:40:34.389Z,48.56
2019-01-29T10:43:43.907Z,48.06
2019-01-29T10:46:35.043Z,48.39
2019-01-29T10:49:37.030Z,48.48
2019-01-29T10:55:18.684Z,48.05
2019-01-29T10:57:48.800Z,47.74
2019-01-29T11:00:39.586Z,48.13
2019-01-29T11:06:37.701Z,47.30
2019-01-29T11:09:41.000Z,47.25
2019-01-29T11:12:35.706Z,47.86
2019-01-29T11:15:14.922Z,48.04
2019-01-29T11:17:50.726Z,47.56
2019-01-29T11:21:03.926Z,47.76
2019-01-29T11:24:08.196Z,45.90
2019-01-29T11:27:09.739Z,47.13
2019-01-29T11:30:00.539Z,46.37
2019-01-29T11:38:17.478Z,46.92
2019-01-29T11:41:09.414Z,46.97
2019-01-29T11:43:40.839Z,46.45
2019-01-29T11:49:20.342Z,46.96
2019-01-29T11:52:12.828Z,46.52
2019-01-29T11:55:04.157Z,47.04
2019-01-29T11:57:57.122Z,46.12
2019-01-29T12:00:48.825Z,45.68
2019-01-29T12:06:28.487Z,44.97
2019-01-29T12:15:42.011Z,45.72
2019-01-29T12:18:34.766Z,45.72
2019-01-29T12:21:03.687Z,45.10
2019-01-29T12:23:34.696Z,44.74
2019-01-29T12:26:25.282Z,45.44
2019-01-29T12:29:09.018Z,46.01
2019-01-29T12:37:57.072Z,43.32
2019-01-29T12:43:16.072Z,42.83
2019-01-29T12:46:06.150Z,42.78
2019-01-29T12:48:36.227Z,42.81
2019-01-29T12:54:17.434Z,43.69
2019-01-29T13:00:08.060Z,42.83
2019-01-29T13:02:57.155Z,42.49
2019-01-29T13:05:27.422Z,42.61
2019-01-29T13:08:11.377Z,42.61
2019-01-29T13:10:31.938Z,42.87
2019-01-29T13:13:02.069Z,42.64
2019-01-29T13:15:50.814Z,43.01
2019-01-29T13:18:42.403Z,42.76
2019-01-29T13:21:12.537Z,42.41
2019-01-29T13:26:33.056Z,42.32
2019-01-29T13:29:07.440Z,42.25
2019-01-29T13:32:16.753Z,42.19
2019-01-29T13:35:24.891Z,42.14
2019-01-29T13:38:41.795Z,41.76
2019-01-29T13:41:36.249Z,42.45
2019-01-29T13:44:08.218Z,42.82
2019-01-29T13:47:19.499Z,42.35
2019-01-29T13:50:28.853Z,41.48
2019-01-29T13:53:17.933Z,42.05
2019-01-29T13:55:48.007Z,42.04
2019-01-29T13:58:37.701Z,40.93
2019-01-29T14:01:29.112Z,40.99
2019-01-29T14:04:19.084Z,41.31
2019-01-29T14:07:02.017Z,42.28
2019-01-29T14:09:22.221Z,42.14
2019-01-29T14:11:52.316Z,40.73
2019-01-29T14:20:22.640Z,41.74
2019-01-29T14:22:52.761Z,41.24
2019-01-29T14:25:38.353Z,41.31
2019-01-29T14:27:57.488Z,40.74
2019-01-29T14:33:28.724Z,40.75
2019-01-29T14:36:17.719Z,40.80
2019-01-29T14:39:40.343Z,39.64
2019-01-29T14:42:19.113Z,39.99
2019-01-29T14:47:54.548Z,42.01
2019-01-29T14:50:44.535Z,41.27
2019-01-29T14:53:38.209Z,41.93
2019-01-29T14:56:57.014Z,42.66
2019-01-29T14:59:55.223Z,41.82
2019-01-29T15:03:04.287Z,42.06
2019-01-29T15:09:34.209Z,42.50
2019-01-29T15:12:15.453Z,42.13
2019-01-29T15:15:04.597Z,41.64
2019-01-29T15:18:16.121Z,41.94
2019-01-29T15:23:35.417Z,42.94
2019-01-29T15:26:24.172Z,42.94
2019-01-29T15:29:13.243Z,42.61
2019-01-29T15:32:16.237Z,42.22
2019-01-29T15:37:47.946Z,42.13
2019-01-29T15:40:37.102Z,41.92
2019-01-29T15:43:26.101Z,42.34
2019-01-29T15:46:41.405Z,42.20
2019-01-29T15:48:51.695Z,41.88
2019-01-29T15:51:22.710Z,41.21
2019-01-29T15:54:05.307Z,40.75
2019-01-29T15:56:47.375Z,41.19
2019-01-29T15:59:17.422Z,42.05
2019-01-29T16:02:06.548Z,41.54
2019-01-29T16:08:13.792Z,39.94
2019-01-29T16:10:45.453Z,40.08
2019-01-29T16:13:16.736Z,39.65
2019-01-29T16:16:08.272Z,39.66
2019-01-29T16:18:58.638Z,38.62
2019-01-29T16:25:06.066Z,38.47
2019-01-29T16:27:58.822Z,38.66
2019-01-29T16:30:52.268Z,39.38
2019-01-29T16:33:23.980Z,40.10
2019-01-29T16:44:48.464Z,41.70
2019-01-29T16:47:32.320Z,41.48
2019-01-29T16:49:52.048Z,41.53
2019-01-29T16:52:27.963Z,42.24
2019-01-29T17:01:17.482Z,40.78
2019-01-29T17:03:54.864Z,41.16
2019-01-29T17:06:39.399Z,41.25
2019-01-29T17:08:58.760Z,41.05
2019-01-29T17:11:28.815Z,41.15
2019-01-29T17:14:00.444Z,40.86
2019-01-29T17:19:41.544Z,41.07
2019-01-29T17:22:13.403Z,41.24
2019-01-29T17:27:44.361Z,40.99
2019-01-29T17:30:25.870Z,40.79
2019-01-29T17:33:20.218Z,41.34
2019-01-29T17:36:12.399Z,41.68
2019-01-29T17:42:05.689Z,42.08
2019-01-29T17:44:38.910Z,41.26
2019-01-29T17:47:10.997Z,41.75
2019-01-29T17:49:41.112Z,41.81
2019-01-29T17:52:13.019Z,41.91
2019-01-29T17:57:54.512Z,42.00
2019-01-29T18:01:05.728Z,42.07
2019-01-29T18:03:55.718Z,42.18
2019-01-29T18:09:38.387Z,41.43
2019-01-29T18:12:09.308Z,42.54
2019-01-29T18:17:41.485Z,43.47
2019-01-29T18:23:01.201Z,43.70
2019-01-29T18:25:50.334Z,44.15
2019-01-29T18:28:40.315Z,44.41
2019-01-29T18:31:50.489Z,44.62
2019-01-29T18:35:00.042Z,44.68
2019-01-29T18:41:06.523Z,45.08
2019-01-29T18:43:56.512Z,45.42
2019-01-29T18:53:29.215Z,45.76
2019-01-29T18:56:10.592Z,45.61
2019-01-29T19:02:35.586Z,46.03
2019-01-29T19:05:13.485Z,46.55
2019-01-29T19:13:34.609Z,46.99
2019-01-29T19:16:08.258Z,46.54
2019-01-29T19:21:41.699Z,46.87
2019-01-29T19:24:43.098Z,47.21
2019-01-29T19:30:44.719Z,47.19
2019-01-29T19:36:46.378Z,47.65
2019-01-29T19:39:56.550Z,47.94
2019-01-29T19:46:16.022Z,48.05
2019-01-29T19:48:50.889Z,46.39
2019-01-29T19:54:47.414Z,47.69
2019-01-29T19:57:37.411Z,47.67
2019-01-29T20:04:03.013Z,47.90
2019-01-29T20:06:52.205Z,47.33
2019-01-29T20:10:02.487Z,48.43
2019-01-29T20:12:40.314Z,48.07
2019-01-29T20:15:15.485Z,47.61
2019-01-29T20:18:06.118Z,48.10
2019-01-29T20:20:59.539Z,48.57
2019-01-29T20:24:10.714Z,48.80
2019-01-29T20:26:59.830Z,48.83
2019-01-29T20:29:29.920Z,48.87
2019-01-29T20:32:03.305Z,48.77
2019-01-29T20:34:54.084Z,48.41
2019-01-29T20:37:25.014Z,48.46
2019-01-29T20:39:55.125Z,47.50
2019-01-29T20:42:27.339Z,48.11
2019-01-29T20:45:17.349Z,47.00
2019-01-29T20:48:08.625Z,47.12
2019-01-29T20:50:38.666Z,46.29
2019-01-29T20:53:12.183Z,45.59
2019-01-29T20:56:02.446Z,47.14
2019-01-29T20:58:34.281Z,47.70
2019-01-29T21:04:46.068Z,47.88
2019-01-29T21:07:56.018Z,48.98
2019-01-29T21:10:27.002Z,48.14
2019-01-29T21:13:20.441Z,47.79
2019-01-29T21:16:30.041Z,48.68
2019-01-29T21:19:20.039Z,48.77
2019-01-29T21:24:59.771Z,49.05
2019-01-29T21:27:30.661Z,49.06
2019-01-29T21:30:01.629Z,48.43
2019-01-29T21:32:51.868Z,48.74
2019-01-29T21:35:44.454Z,49.01
2019-01-29T21:41:16.009Z,48.23
2019-01-29T21:46:31.404Z,48.32
2019-01-29T21:49:01.664Z,46.91
2019-01-29T21:54:48.515Z,47.95
2019-01-29T21:57:18.567Z,48.17
2019-01-29T22:00:09.167Z,48.19
2019-01-29T22:02:39.252Z,48.19
2019-01-29T22:05:11.822Z,48.15
2019-01-29T22:08:20.951Z,47.96
2019-01-29T22:14:01.534Z,47.11
2019-01-29T22:16:31.630Z,47.35
2019-01-29T22:19:01.807Z,47.56
2019-01-29T22:21:31.806Z,47.35
2019-01-29T22:24:03.821Z,47.05
2019-01-29T22:26:57.842Z,47.10
2019-01-29T22:32:27.715Z,47.11
2019-01-29T22:34:58.692Z,46.97
2019-01-29T22:37:28.754Z,47.08
2019-01-29T22:40:22.245Z,46.94
2019-01-29T22:43:13.133Z,46.55
2019-01-29T22:46:22.279Z,46.66
2019-01-29T22:49:11.449Z,46.84
2019-01-29T22:51:52.978Z,47.34
2019-01-29T22:54:53.979Z,47.34
2019-01-29T22:59:53.284Z,47.41
2019-01-29T23:08:16.131Z,47.79
2019-01-29T23:11:05.515Z,47.82
2019-01-29T23:13:54.334Z,48.04
2019-01-29T23:16:43.408Z,48.19
2019-01-29T23:22:15.808Z,48.61
2019-01-29T23:27:55.426Z,48.95
2019-01-29T23:37:28.229Z,48.98
2019-01-29T23:46:08.908Z,48.89
2019-01-29T23:49:02.532Z,48.81
2019-01-29T23:52:03.855Z,48.66
